ADDS TAF Data INFO
IDs: Format: Raw Decoded Include METARs

Data at: 2311 UTC 19 Jul 2018

KBCE 192253Z AUTO 34015KT 10SM FEW120 22/06 A3036 RMK AO2 RAE33 SLP155 P0000 T02220056

KBCE 191728Z 1918/2018 28006KT P6SM VCSH SCT080 SCT120
  TEMPO 1919/1922 VRB15G30KT 5SM TSRA BKN060CB
  FM200300 27006KT P6SM VCSH SCT080 BKN120
  FM200800 28006KT P6SM SCT080 BKN150